createdAt,value
2023-02-11T00:01:30.071Z,58.20
2023-02-11T00:03:57.584Z,56.58
2023-02-11T00:06:25.272Z,55.72
2023-02-11T00:08:52.622Z,57.13
2023-02-11T00:11:20.803Z,57.60
2023-02-11T00:13:48.271Z,52.25
2023-02-11T00:16:17.513Z,58.92
2023-02-11T00:18:44.944Z,55.42
2023-02-11T00:21:17.473Z,57.17
2023-02-11T00:23:45.203Z,52.95
2023-02-11T00:26:17.540Z,57.42
2023-02-11T00:28:45.641Z,55.03
2023-02-11T00:31:13.578Z,56.30
2023-02-11T00:33:41.052Z,55.50
2023-02-11T00:36:16.729Z,50.85
2023-02-11T00:38:47.520Z,51.72
2023-02-11T00:41:15.026Z,53.28
2023-02-11T00:43:42.514Z,47.08
2023-02-11T00:46:09.977Z,50.60
2023-02-11T00:48:37.332Z,49.55
2023-02-11T00:51:04.910Z,52.08
2023-02-11T00:53:32.369Z,50.30
2023-02-11T00:56:00.998Z,47.50
2023-02-11T00:58:28.585Z,48.08
2023-02-11T01:00:55.994Z,53.65
2023-02-11T01:03:24.906Z,49.08
2023-02-11T01:05:52.924Z,50.72
2023-02-11T01:08:20.417Z,51.60
2023-02-11T01:11:04.574Z,50.00
2023-02-11T01:13:33.655Z,51.45
2023-02-11T01:16:01.159Z,49.10
2023-02-11T01:18:28.505Z,53.30
2023-02-11T01:20:55.845Z,49.20
2023-02-11T01:23:23.918Z,49.00
2023-02-11T01:25:51.956Z,50.90
2023-02-11T01:28:21.160Z,48.80
2023-02-11T01:30:48.740Z,48.25
2023-02-11T01:33:16.129Z,45.70
2023-02-11T01:35:43.617Z,49.00
2023-02-11T01:38:19.874Z,42.05
2023-02-11T01:40:51.624Z,46.40
2023-02-11T01:43:18.978Z,42.90
2023-02-11T01:45:47.044Z,40.88
2023-02-11T01:48:17.968Z,43.97
2023-02-11T01:50:45.436Z,41.95
2023-02-11T01:53:31.036Z,48.22
2023-02-11T01:56:16.704Z,45.42
2023-02-11T01:58:44.514Z,43.95
2023-02-11T02:01:13.234Z,42.10
2023-02-11T02:03:42.103Z,37.97
2023-02-11T02:06:16.783Z,43.80
2023-02-11T02:09:05.050Z,43.92
2023-02-11T02:11:32.361Z,44.15
2023-02-11T02:13:59.643Z,40.05
2023-02-11T02:16:34.898Z,45.42
2023-02-11T02:19:23.989Z,42.90
2023-02-11T02:22:15.343Z,45.83
2023-02-11T02:25:02.354Z,43.55
2023-02-11T02:27:37.444Z,38.80
2023-02-11T02:30:32.734Z,43.53
2023-02-11T02:33:20.583Z,39.20
2023-02-11T02:36:27.733Z,43.85
2023-02-11T02:39:17.059Z,41.60
2023-02-11T02:41:44.365Z,43.05
2023-02-11T02:44:11.685Z,38.90
2023-02-11T02:46:39.036Z,38.33
2023-02-11T02:49:10.073Z,40.85
2023-02-11T02:51:58.882Z,38.47
2023-02-11T02:54:48.557Z,42.08
2023-02-11T02:58:05.170Z,33.92
2023-02-11T03:00:42.394Z,37.50
2023-02-11T03:03:24.582Z,31.85
2023-02-11T03:05:52.223Z,35.22
2023-02-11T03:08:51.375Z,38.33
2023-02-11T03:11:19.265Z,37.75
2023-02-11T03:13:46.699Z,32.97
2023-02-11T03:16:16.383Z,32.75
2023-02-11T03:18:46.733Z,30.40
2023-02-11T03:21:14.107Z,28.27
2023-02-11T03:23:56.424Z,28.48
2023-02-11T03:26:30.200Z,31.17
2023-02-11T03:29:06.551Z,36.05
2023-02-11T03:31:42.428Z,27.73
2023-02-11T03:34:15.665Z,30.40
2023-02-11T03:36:57.341Z,34.50
2023-02-11T03:39:27.896Z,31.52
2023-02-11T03:41:55.503Z,29.35
2023-02-11T03:44:22.813Z,29.48
2023-02-11T03:46:50.918Z,33.10
2023-02-11T03:49:20.274Z,29.00
2023-02-11T03:51:48.848Z,30.20
2023-02-11T03:54:18.649Z,29.17
2023-02-11T03:56:51.156Z,28.65
2023-02-11T03:59:18.588Z,29.75
2023-02-11T04:01:45.948Z,27.05
2023-02-11T04:04:13.376Z,34.97
2023-02-11T04:06:40.882Z,29.35
2023-02-11T04:09:08.854Z,32.75
2023-02-11T04:11:36.271Z,40.60
2023-02-11T04:14:03.861Z,33.70
2023-02-11T04:16:31.279Z,27.52
2023-02-11T04:18:58.777Z,25.65
2023-02-11T04:21:26.123Z,24.65
2023-02-11T04:23:53.495Z,25.63
2023-02-11T04:26:20.909Z,24.55
2023-02-11T04:28:48.232Z,26.92
2023-02-11T04:31:15.634Z,27.90
2023-02-11T04:33:43.085Z,29.58
2023-02-11T04:36:10.435Z,21.55
2023-02-11T04:38:37.792Z,25.10
2023-02-11T04:41:05.358Z,29.48
2023-02-11T04:43:32.730Z,25.75
2023-02-11T04:46:00.159Z,28.13
2023-02-11T04:48:27.622Z,25.58
2023-02-11T04:50:54.952Z,21.13
2023-02-11T04:53:22.367Z,23.38
2023-02-11T04:55:50.972Z,23.40
2023-02-11T04:58:19.098Z,23.92
2023-02-11T05:00:46.534Z,25.25
2023-02-11T05:03:13.960Z,25.35
2023-02-11T05:05:41.858Z,25.33
2023-02-11T05:08:09.720Z,23.02
2023-02-11T05:10:37.340Z,22.58
2023-02-11T05:13:04.795Z,24.95
2023-02-11T05:15:32.101Z,22.80
2023-02-11T05:17:59.444Z,28.05
2023-02-11T05:20:26.774Z,23.85
2023-02-11T05:22:54.083Z,25.08
2023-02-11T05:25:21.535Z,23.17
2023-02-11T05:27:48.897Z,23.45
2023-02-11T05:30:16.298Z,21.80
2023-02-11T05:32:43.644Z,24.73
2023-02-11T05:35:10.967Z,24.02
2023-02-11T05:37:38.401Z,24.23
2023-02-11T05:40:06.275Z,22.75
2023-02-11T05:42:33.602Z,23.80
2023-02-11T05:45:00.976Z,24.45
2023-02-11T05:47:28.331Z,27.38
2023-02-11T05:49:56.062Z,28.02
2023-02-11T05:52:23.454Z,26.75
2023-02-11T05:54:50.826Z,23.67
2023-02-11T05:57:18.354Z,22.50
2023-02-11T05:59:45.737Z,22.23
2023-02-11T06:02:13.076Z,20.80
2023-02-11T06:04:40.460Z,22.23
2023-02-11T06:07:07.804Z,23.60
2023-02-11T06:09:35.125Z,23.15
2023-02-11T06:12:02.482Z,22.25
2023-02-11T06:14:29.837Z,24.50
2023-02-11T06:16:57.170Z,24.58
2023-02-11T06:19:24.497Z,21.40
2023-02-11T06:21:51.832Z,24.58
2023-02-11T06:24:33.084Z,22.10
2023-02-11T06:27:06.622Z,22.42
2023-02-11T06:29:33.938Z,23.27
2023-02-11T06:32:01.383Z,20.67
2023-02-11T06:34:28.841Z,22.00
2023-02-11T06:36:56.186Z,22.30
2023-02-11T06:39:23.506Z,22.67
2023-02-11T06:41:50.830Z,22.55
2023-02-11T06:44:18.145Z,28.23
2023-02-11T06:46:45.546Z,20.70
2023-02-11T06:49:13.423Z,30.65
2023-02-11T06:51:40.797Z,25.98
2023-02-11T06:54:08.135Z,23.20
2023-02-11T06:56:36.859Z,21.70
2023-02-11T06:59:04.247Z,25.20
2023-02-11T07:01:31.656Z,24.45
2023-02-11T07:03:59.035Z,24.80
2023-02-11T07:06:27.985Z,22.02
2023-02-11T07:08:55.954Z,25.58
2023-02-11T07:11:28.326Z,21.55
2023-02-11T07:13:57.389Z,25.73
2023-02-11T07:16:24.851Z,21.85
2023-02-11T07:18:52.254Z,23.98
2023-02-11T07:21:21.222Z,23.52
2023-02-11T07:23:48.695Z,25.15
2023-02-11T07:26:18.107Z,27.00
2023-02-11T07:28:45.738Z,28.90
2023-02-11T07:31:23.823Z,24.25
2023-02-11T07:33:52.578Z,20.92
2023-02-11T07:36:20.187Z,22.35
2023-02-11T07:38:47.517Z,21.90
2023-02-11T07:41:16.874Z,18.02
2023-02-11T07:43:44.437Z,17.33
2023-02-11T07:46:24.501Z,24.42
2023-02-11T07:48:52.024Z,18.40
2023-02-11T07:51:29.452Z,23.13
2023-02-11T07:53:58.070Z,21.60
2023-02-11T07:56:25.680Z,23.42
2023-02-11T07:58:53.025Z,34.53
2023-02-11T08:01:24.932Z,29.95
2023-02-11T08:03:52.720Z,24.95
2023-02-11T08:06:20.742Z,21.25
2023-02-11T08:08:48.231Z,22.75
2023-02-11T08:11:16.757Z,19.17
2023-02-11T08:13:44.542Z,24.10
2023-02-11T08:16:20.715Z,21.30
2023-02-11T08:18:48.535Z,28.52
2023-02-11T08:21:15.867Z,22.95
2023-02-11T08:23:43.787Z,25.63
2023-02-11T08:26:16.401Z,26.75
2023-02-11T08:28:44.423Z,26.02
2023-02-11T08:31:14.468Z,27.63
2023-02-11T08:33:42.127Z,28.02
2023-02-11T08:36:17.073Z,24.95
2023-02-11T08:38:44.914Z,30.48
2023-02-11T08:41:14.816Z,35.15
2023-02-11T08:43:42.509Z,32.42
2023-02-11T08:46:16.357Z,32.58
2023-02-11T08:48:44.161Z,28.23
2023-02-11T08:51:16.849Z,26.98
2023-02-11T08:53:44.366Z,29.35
2023-02-11T08:56:13.511Z,30.05
2023-02-11T08:58:41.316Z,32.03
2023-02-11T09:01:12.364Z,34.70
2023-02-11T09:03:39.725Z,30.30
2023-02-11T09:06:07.577Z,30.00
2023-02-11T09:08:38.803Z,27.75
2023-02-11T09:11:06.184Z,31.60
2023-02-11T09:13:33.568Z,30.33
2023-02-11T09:16:01.474Z,30.60
2023-02-11T09:18:28.874Z,33.33
2023-02-11T09:21:06.592Z,27.73
2023-02-11T09:23:34.592Z,30.65
2023-02-11T09:26:09.569Z,34.78
2023-02-11T09:28:37.225Z,28.80
2023-02-11T09:31:09.135Z,33.90
2023-02-11T09:33:36.517Z,27.92
2023-02-11T09:36:05.329Z,26.13
2023-02-11T09:38:33.204Z,34.35
2023-02-11T09:41:03.933Z,27.40
2023-02-11T09:43:39.357Z,28.67
2023-02-11T09:46:06.762Z,36.28
2023-02-11T09:48:39.790Z,34.40
2023-02-11T09:51:07.110Z,26.92
2023-02-11T09:53:40.449Z,27.25
2023-02-11T09:56:14.943Z,26.87
2023-02-11T09:58:43.372Z,29.58
2023-02-11T10:01:37.528Z,32.58
2023-02-11T10:04:14.026Z,32.13
2023-02-11T10:06:53.385Z,33.72
2023-02-11T10:09:29.606Z,38.70
2023-02-11T10:12:02.978Z,30.30
2023-02-11T10:14:49.313Z,36.83
2023-02-11T10:17:35.633Z,32.03
2023-02-11T10:20:34.053Z,32.00
2023-02-11T10:23:22.654Z,32.65
2023-02-11T10:25:52.914Z,35.67
2023-02-11T10:28:25.137Z,32.88
2023-02-11T10:31:29.400Z,33.65
2023-02-11T10:34:02.392Z,31.20
2023-02-11T10:36:33.252Z,32.00
2023-02-11T10:39:01.883Z,36.63
2023-02-11T10:41:34.108Z,32.83
2023-02-11T10:44:01.570Z,30.05
2023-02-11T10:46:33.961Z,33.45
2023-02-11T10:49:03.366Z,39.80
2023-02-11T10:51:34.354Z,31.65
2023-02-11T10:54:05.047Z,37.60
2023-02-11T10:56:36.717Z,41.47
2023-02-11T10:59:32.062Z,37.40
2023-02-11T11:02:07.975Z,36.40
2023-02-11T11:04:43.113Z,42.50
2023-02-11T11:07:27.584Z,43.55
2023-02-11T11:10:02.722Z,34.97
2023-02-11T11:12:35.221Z,31.73
2023-02-11T11:15:10.380Z,36.38
2023-02-11T11:17:38.073Z,34.53
2023-02-11T11:20:22.884Z,36.80
2023-02-11T11:22:51.686Z,33.63
2023-02-11T11:25:29.498Z,31.02
2023-02-11T11:27:59.359Z,43.03
2023-02-11T11:30:41.494Z,29.83
2023-02-11T11:33:28.298Z,32.20
2023-02-11T11:36:00.176Z,36.08
2023-02-11T11:38:29.110Z,35.70
2023-02-11T11:41:30.984Z,37.50
2023-02-11T11:44:24.541Z,27.90
2023-02-11T11:47:05.257Z,34.15
2023-02-11T11:49:35.923Z,35.08
2023-02-11T11:52:23.490Z,27.00
2023-02-11T11:54:58.954Z,26.40
2023-02-11T11:57:28.290Z,27.73
2023-02-11T11:59:55.739Z,27.15
2023-02-11T12:02:52.030Z,29.60
2023-02-11T12:05:34.337Z,29.08
2023-02-11T12:08:19.134Z,27.67
2023-02-11T12:10:58.942Z,32.95
2023-02-11T12:13:35.686Z,30.08
2023-02-11T12:16:18.513Z,27.65
2023-02-11T12:18:51.878Z,26.50
2023-02-11T12:21:33.361Z,29.63
2023-02-11T12:24:23.784Z,35.80
2023-02-11T12:27:17.422Z,33.28
2023-02-11T12:30:02.980Z,37.65
2023-02-11T12:32:41.414Z,34.05
2023-02-11T12:35:39.710Z,31.60
2023-02-11T12:38:48.201Z,31.17
2023-02-11T12:41:45.561Z,30.63
2023-02-11T12:44:27.221Z,29.83
2023-02-11T12:47:09.144Z,34.58
2023-02-11T12:50:08.446Z,30.52
2023-02-11T12:52:47.704Z,28.33
2023-02-11T12:55:22.344Z,28.33
2023-02-11T12:57:50.534Z,30.80
2023-02-11T13:00:25.692Z,31.55
2023-02-11T13:03:12.841Z,27.60
2023-02-11T13:05:53.090Z,26.63
2023-02-11T13:08:30.406Z,32.95
2023-02-11T13:11:32.345Z,27.80
2023-02-11T13:14:32.406Z,29.08
2023-02-11T13:17:00.015Z,29.98
2023-02-11T13:19:39.068Z,28.25
2023-02-11T13:22:18.442Z,30.45
2023-02-11T13:24:58.482Z,26.65
2023-02-11T13:28:05.021Z,31.73
2023-02-11T13:30:35.111Z,27.98
2023-02-11T13:33:04.183Z,28.15
2023-02-11T13:35:38.323Z,28.45
2023-02-11T13:38:19.263Z,26.20
2023-02-11T13:40:57.612Z,30.55
2023-02-11T13:43:28.761Z,28.63
2023-02-11T13:46:03.893Z,29.08
2023-02-11T13:49:00.933Z,24.42
2023-02-11T13:51:39.165Z,31.35
2023-02-11T13:54:06.688Z,34.90
2023-02-11T13:56:34.992Z,28.73
2023-02-11T13:59:06.926Z,29.92
2023-02-11T14:02:12.351Z,27.70
2023-02-11T14:08:28.547Z,26.08
2023-02-11T14:11:34.126Z,28.08
2023-02-11T14:14:03.129Z,29.42
2023-02-11T14:16:38.013Z,29.25
2023-02-11T14:19:06.719Z,28.08
2023-02-11T14:21:38.620Z,29.05
2023-02-11T14:24:07.057Z,27.48
2023-02-11T14:26:55.708Z,28.48
2023-02-11T14:29:42.688Z,31.60
2023-02-11T14:32:25.453Z,28.15
2023-02-11T14:35:11.800Z,25.45
2023-02-11T14:37:57.204Z,26.20
2023-02-11T14:40:31.657Z,28.75
2023-02-11T14:43:04.791Z,24.42
2023-02-11T14:45:34.725Z,39.75
2023-02-11T14:48:02.746Z,27.00
2023-02-11T14:51:08.777Z,25.70
2023-02-11T14:53:36.170Z,30.70
2023-02-11T14:56:03.658Z,29.98
2023-02-11T14:58:32.010Z,30.40
2023-02-11T15:01:09.320Z,29.90
2023-02-11T15:03:41.193Z,36.25
2023-02-11T15:06:34.398Z,32.58
2023-02-11T15:09:27.910Z,40.50
2023-02-11T15:11:55.545Z,38.10
2023-02-11T15:14:34.489Z,32.85
2023-02-11T15:17:03.839Z,31.45
2023-02-11T15:19:36.006Z,36.42
2023-02-11T15:22:10.569Z,34.53
2023-02-11T15:24:39.934Z,39.92
2023-02-11T15:27:16.222Z,41.35
2023-02-11T15:29:52.079Z,38.97
2023-02-11T15:32:24.510Z,36.80
2023-02-11T15:34:52.907Z,34.60
2023-02-11T15:37:25.180Z,37.97
2023-02-11T15:39:53.145Z,38.38
2023-02-11T15:42:28.773Z,36.10
2023-02-11T15:45:14.318Z,35.65
2023-02-11T15:47:48.069Z,39.83
2023-02-11T15:50:26.176Z,39.47
2023-02-11T15:53:11.057Z,40.90
2023-02-11T15:55:56.887Z,52.60
2023-02-11T15:58:42.875Z,46.13
2023-02-11T16:01:13.318Z,41.92
2023-02-11T16:03:41.498Z,41.60
2023-02-11T16:06:27.620Z,42.10
2023-02-11T16:09:11.346Z,39.40
2023-02-11T16:11:47.775Z,36.07
2023-02-11T16:14:40.883Z,38.70
2023-02-11T16:17:27.838Z,44.17
2023-02-11T16:19:55.519Z,42.90
2023-02-11T16:22:30.430Z,40.53
2023-02-11T16:24:58.625Z,41.60
2023-02-11T16:27:32.265Z,41.42
2023-02-11T16:30:00.043Z,41.72
2023-02-11T16:32:28.234Z,43.58
2023-02-11T16:34:58.039Z,42.90
2023-02-11T16:37:26.789Z,36.97
2023-02-11T16:39:55.669Z,49.72
2023-02-11T16:42:23.423Z,43.28
2023-02-11T16:44:50.752Z,43.95
2023-02-11T16:47:27.142Z,45.20
2023-02-11T16:49:55.248Z,45.58
2023-02-11T16:52:22.933Z,44.00
2023-02-11T16:54:50.801Z,45.08
2023-02-11T16:57:28.095Z,46.70
2023-02-11T16:59:57.161Z,45.15
2023-02-11T17:02:31.998Z,48.78
2023-02-11T17:05:00.729Z,44.85
2023-02-11T17:07:28.401Z,41.33
2023-02-11T17:09:56.004Z,46.35
2023-02-11T17:12:25.396Z,41.45
2023-02-11T17:14:53.258Z,52.47
2023-02-11T17:17:23.176Z,43.90
2023-02-11T17:19:51.145Z,50.28
2023-02-11T17:22:18.742Z,49.63
2023-02-11T17:24:46.264Z,49.28
2023-02-11T17:27:13.686Z,54.35
2023-02-11T17:29:41.070Z,49.85
2023-02-11T17:32:08.459Z,54.45
2023-02-11T17:34:35.873Z,49.40
2023-02-11T17:37:08.960Z,54.90
2023-02-11T17:39:39.885Z,56.78
2023-02-11T17:42:07.339Z,47.00
2023-02-11T17:44:34.729Z,44.58
2023-02-11T17:47:02.051Z,39.78
2023-02-11T17:49:29.392Z,46.65
2023-02-11T17:51:56.820Z,43.00
2023-02-11T17:54:25.022Z,46.60
2023-02-11T17:56:55.183Z,45.05
2023-02-11T17:59:25.289Z,39.55
2023-02-11T18:01:52.621Z,39.47
2023-02-11T18:04:20.096Z,40.15
2023-02-11T18:06:47.653Z,36.42
2023-02-11T18:09:15.040Z,36.97
2023-02-11T18:11:42.586Z,37.55
2023-02-11T18:14:10.992Z,39.38
2023-02-11T18:16:39.787Z,37.28
2023-02-11T18:19:07.691Z,41.35
2023-02-11T18:21:35.255Z,40.72
2023-02-11T18:24:06.511Z,44.03
2023-02-11T18:26:34.606Z,42.72
2023-02-11T18:29:02.043Z,44.80
2023-02-11T18:31:29.684Z,37.17
2023-02-11T18:33:57.085Z,42.30
2023-02-11T18:36:24.372Z,36.92
2023-02-11T18:38:53.622Z,42.58
2023-02-11T18:41:21.103Z,40.25
2023-02-11T18:43:48.562Z,37.90
2023-02-11T18:46:16.182Z,35.20
2023-02-11T18:48:44.859Z,41.17
2023-02-11T18:51:14.698Z,42.58
2023-02-11T18:53:42.484Z,36.40
2023-02-11T18:56:18.215Z,41.67
2023-02-11T18:58:45.648Z,41.35
2023-02-11T19:01:27.281Z,43.25
2023-02-11T19:03:55.623Z,47.72
2023-02-11T19:06:27.365Z,40.95
2023-02-11T19:08:57.577Z,44.08
2023-02-11T19:11:45.330Z,45.70
2023-02-11T19:14:13.099Z,48.05
2023-02-11T19:16:41.522Z,48.47
2023-02-11T19:19:08.980Z,44.25
2023-02-11T19:21:36.564Z,50.60
2023-02-11T19:24:07.804Z,45.97
2023-02-11T19:26:35.525Z,48.28
2023-02-11T19:29:03.318Z,52.92
2023-02-11T19:31:32.360Z,51.65
2023-02-11T19:34:00.519Z,46.60
2023-02-11T19:36:28.082Z,46.92
2023-02-11T19:38:55.625Z,43.70
2023-02-11T19:41:23.275Z,41.90
2023-02-11T19:43:53.705Z,44.33
2023-02-11T19:46:21.339Z,51.42
2023-02-11T19:48:49.008Z,42.50
2023-02-11T19:51:16.393Z,46.17
2023-02-11T19:53:44.127Z,47.13
2023-02-11T19:56:12.706Z,48.33
2023-02-11T19:58:40.260Z,51.55
2023-02-11T20:01:15.524Z,49.80
2023-02-11T20:03:43.109Z,44.63
2023-02-11T20:06:13.231Z,58.03
2023-02-11T20:08:40.926Z,46.42
2023-02-11T20:11:09.757Z,49.60
2023-02-11T20:13:37.843Z,52.50
2023-02-11T20:16:06.781Z,42.72
2023-02-11T20:18:34.233Z,48.97
2023-02-11T20:21:09.763Z,43.78
2023-02-11T20:23:38.320Z,47.05
2023-02-11T20:26:18.241Z,52.20
2023-02-11T20:28:45.958Z,47.80
2023-02-11T20:31:13.738Z,49.78
2023-02-11T20:33:41.374Z,45.00
2023-02-11T20:36:14.391Z,51.30
2023-02-11T20:38:41.845Z,44.00
2023-02-11T20:41:34.218Z,49.28
2023-02-11T20:44:04.217Z,48.17
2023-02-11T20:46:33.039Z,46.45
2023-02-11T20:49:00.596Z,46.75
2023-02-11T20:51:29.820Z,48.58
2023-02-11T20:53:57.280Z,42.75
2023-02-11T20:56:26.520Z,45.67
2023-02-11T20:58:53.849Z,46.63
2023-02-11T21:01:24.964Z,45.20
2023-02-11T21:03:57.066Z,43.63
2023-02-11T21:06:25.761Z,44.47
2023-02-11T21:08:53.836Z,46.65
2023-02-11T21:11:21.146Z,52.17
2023-02-11T21:13:48.732Z,47.92
2023-02-11T21:16:17.550Z,55.47
2023-02-11T21:18:44.940Z,47.38
2023-02-11T21:21:12.371Z,48.08
2023-02-11T21:23:40.280Z,47.80
2023-02-11T21:26:07.754Z,52.40
2023-02-11T21:28:35.300Z,48.97
2023-02-11T21:31:03.152Z,50.15
2023-02-11T21:33:33.520Z,45.65
2023-02-11T21:36:02.162Z,49.55
2023-02-11T21:38:29.740Z,53.45
2023-02-11T21:41:05.121Z,47.42
2023-02-11T21:43:32.687Z,43.97
2023-02-11T21:46:00.236Z,52.00
2023-02-11T21:48:27.599Z,49.60
2023-02-11T21:50:54.992Z,50.10
2023-02-11T21:53:22.383Z,55.40
2023-02-11T21:55:51.317Z,43.13
2023-02-11T21:58:18.709Z,48.80
2023-02-11T22:00:46.159Z,41.90
2023-02-11T22:03:13.620Z,46.83
2023-02-11T22:05:41.396Z,45.10
2023-02-11T22:08:08.963Z,50.03
2023-02-11T22:10:36.306Z,51.90
2023-02-11T22:13:03.645Z,47.40
2023-02-11T22:15:31.007Z,47.45
2023-02-11T22:17:58.380Z,48.65
2023-02-11T22:20:25.792Z,45.22
2023-02-11T22:22:53.109Z,56.97
2023-02-11T22:25:20.412Z,55.13
2023-02-11T22:27:47.763Z,47.25
2023-02-11T22:30:15.187Z,52.15
2023-02-11T22:35:26.895Z,43.03
2023-02-11T22:37:54.249Z,47.33
2023-02-11T22:40:21.593Z,45.80
2023-02-11T22:42:48.919Z,45.90
2023-02-11T22:45:16.321Z,44.53
2023-02-11T22:47:43.620Z,41.58
2023-02-11T22:50:11.341Z,47.40
2023-02-11T22:52:38.640Z,45.03
2023-02-11T22:55:07.070Z,43.17
2023-02-11T22:57:34.453Z,45.78
2023-02-11T23:00:01.798Z,47.17
2023-02-11T23:02:29.185Z,47.05
2023-02-11T23:04:56.535Z,45.97
2023-02-11T23:07:23.906Z,48.35
2023-02-11T23:09:51.250Z,46.00
2023-02-11T23:12:18.610Z,49.80
2023-02-11T23:14:45.949Z,46.33
2023-02-11T23:17:13.252Z,45.72
2023-02-11T23:19:40.642Z,52.10
2023-02-11T23:22:08.052Z,48.65
2023-02-11T23:24:35.354Z,48.83
2023-02-11T23:27:02.751Z,51.33
2023-02-11T23:29:30.086Z,49.70
2023-02-11T23:31:58.925Z,45.45
2023-02-11T23:34:26.576Z,44.55
2023-02-11T23:36:54.104Z,44.15
2023-02-11T23:39:21.465Z,46.38
2023-02-11T23:41:48.850Z,48.13
2023-02-11T23:44:16.159Z,49.08
2023-02-11T23:46:43.484Z,48.80
2023-02-11T23:49:10.792Z,44.78
2023-02-11T23:51:38.172Z,49.50
2023-02-11T23:54:05.535Z,45.60
2023-02-11T23:56:32.976Z,45.17
2023-02-11T23:59:00.326Z,49.65
